Terminal Aerodrome Forecast
Issued by NWS Cleveland, OH

Home | Current Version | Previous Version | Graphics & Text | Print | Product List | Glossary On
Versions: 1 2 3 4 5 6 7 8 9 10 11 12 13 14 15 16 17 18 19
819
FTUS41 KCLE 102341
TAFCAK
TAF
KCAK 102341Z 1100/1124 28012KT 2SM -SHSN BKN025
      TEMPO 1100/1102 1/2SM SN OVC008
     FM110400 27012KT 6SM -SHSN BKN015 OVC025
     FM111000 30010KT P6SM -SHSN BKN025
     FM111500 30012KT P6SM BKN035=

USA.gov is the U.S. government's official web portal to all federal, state and local government web resources and services.